sensor_id;sensor_type;location;lat;lon;timestamp;P1;durP1;ratioP1;P2;durP2;ratioP2
54575;SDS011;40472;53.486;14.542;2022-08-19T00:00:17;12.18;;;7.43;;
54575;SDS011;40472;53.486;14.542;2022-08-19T00:02:44;9.50;;;7.65;;
54575;SDS011;40472;53.486;14.542;2022-08-19T00:05:11;7.90;;;6.05;;
54575;SDS011;40472;53.486;14.542;2022-08-19T00:07:37;10.30;;;6.63;;
54575;SDS011;40472;53.486;14.542;2022-08-19T00:10:05;8.75;;;6.65;;
54575;SDS011;40472;53.486;14.542;2022-08-19T00:12:31;12.13;;;7.72;;
54575;SDS011;40472;53.486;14.542;2022-08-19T00:15:02;11.27;;;7.88;;
54575;SDS011;40472;53.486;14.542;2022-08-19T00:17:33;11.25;;;8.05;;
54575;SDS011;40472;53.486;14.542;2022-08-19T00:20:04;11.15;;;8.32;;
54575;SDS011;40472;53.486;14.542;2022-08-19T00:22:31;13.07;;;9.68;;
54575;SDS011;40472;53.486;14.542;2022-08-19T00:25:04;13.52;;;10.20;;
54575;SDS011;40472;53.486;14.542;2022-08-19T00:27:32;14.38;;;10.57;;
54575;SDS011;40472;53.486;14.542;2022-08-19T00:29:57;14.63;;;10.98;;
54575;SDS011;40472;53.486;14.542;2022-08-19T00:32:27;15.82;;;11.82;;
54575;SDS011;40472;53.486;14.542;2022-08-19T00:34:52;15.25;;;12.07;;
54575;SDS011;40472;53.486;14.542;2022-08-19T00:37:19;17.90;;;11.57;;
54575;SDS011;40472;53.486;14.542;2022-08-19T00:39:48;21.48;;;13.20;;
54575;SDS011;40472;53.486;14.542;2022-08-19T00:42:14;17.02;;;13.43;;
54575;SDS011;40472;53.486;14.542;2022-08-19T00:44:40;19.20;;;12.57;;
54575;SDS011;40472;53.486;14.542;2022-08-19T00:47:06;15.27;;;13.10;;
54575;SDS011;40472;53.486;14.542;2022-08-19T00:49:36;18.80;;;14.05;;
54575;SDS011;40472;53.486;14.542;2022-08-19T00:52:13;19.13;;;13.60;;
54575;SDS011;40472;53.486;14.542;2022-08-19T00:54:41;17.10;;;12.82;;
54575;SDS011;40472;53.486;14.542;2022-08-19T00:57:10;21.20;;;13.93;;
54575;SDS011;40472;53.486;14.542;2022-08-19T00:59:40;20.25;;;15.63;;
54575;SDS011;40472;53.486;14.542;2022-08-19T01:02:09;18.05;;;14.07;;
54575;SDS011;40472;53.486;14.542;2022-08-19T01:04:34;23.27;;;16.35;;
54575;SDS011;40472;53.486;14.542;2022-08-19T01:07:01;19.60;;;15.02;;
54575;SDS011;40472;53.486;14.542;2022-08-19T01:09:27;20.05;;;14.07;;
54575;SDS011;40472;53.486;14.542;2022-08-19T01:11:53;21.67;;;16.23;;
54575;SDS011;40472;53.486;14.542;2022-08-19T01:14:19;18.65;;;14.05;;
54575;SDS011;40472;53.486;14.542;2022-08-19T01:16:45;17.45;;;13.23;;
54575;SDS011;40472;53.486;14.542;2022-08-19T01:19:28;20.75;;;11.82;;
54575;SDS011;40472;53.486;14.542;2022-08-19T01:22:17;16.50;;;12.65;;
54575;SDS011;40472;53.486;14.542;2022-08-19T01:24:45;18.08;;;13.10;;
54575;SDS011;40472;53.486;14.542;2022-08-19T01:27:11;16.50;;;13.50;;
54575;SDS011;40472;53.486;14.542;2022-08-19T01:29:38;18.92;;;13.18;;
54575;SDS011;40472;53.486;14.542;2022-08-19T01:32:04;19.38;;;14.23;;
54575;SDS011;40472;53.486;14.542;2022-08-19T01:34:32;14.95;;;12.25;;
54575;SDS011;40472;53.486;14.542;2022-08-19T01:36:59;20.20;;;13.23;;
54575;SDS011;40472;53.486;14.542;2022-08-19T01:39:30;17.80;;;12.00;;
54575;SDS011;40472;53.486;14.542;2022-08-19T01:41:55;18.30;;;11.63;;
54575;SDS011;40472;53.486;14.542;2022-08-19T01:44:21;17.60;;;12.00;;
54575;SDS011;40472;53.486;14.542;2022-08-19T01:46:49;20.15;;;11.18;;
54575;SDS011;40472;53.486;14.542;2022-08-19T01:49:20;14.98;;;11.88;;
54575;SDS011;40472;53.486;14.542;2022-08-19T01:51:47;15.60;;;12.30;;
54575;SDS011;40472;53.486;14.542;2022-08-19T01:54:15;15.85;;;10.60;;
54575;SDS011;40472;53.486;14.542;2022-08-19T01:56:42;14.77;;;10.32;;
54575;SDS011;40472;53.486;14.542;2022-08-19T01:59:10;21.30;;;10.50;;
54575;SDS011;40472;53.486;14.542;2022-08-19T02:01:39;12.98;;;9.27;;
54575;SDS011;40472;53.486;14.542;2022-08-19T02:04:05;10.52;;;8.20;;
54575;SDS011;40472;53.486;14.542;2022-08-19T02:06:31;16.60;;;9.65;;
54575;SDS011;40472;53.486;14.542;2022-08-19T02:08:58;12.20;;;8.93;;
54575;SDS011;40472;53.486;14.542;2022-08-19T02:11:25;14.98;;;9.18;;
54575;SDS011;40472;53.486;14.542;2022-08-19T02:13:54;13.98;;;8.30;;
54575;SDS011;40472;53.486;14.542;2022-08-19T02:16:20;15.55;;;11.02;;
54575;SDS011;40472;53.486;14.542;2022-08-19T02:18:48;17.05;;;11.55;;
54575;SDS011;40472;53.486;14.542;2022-08-19T02:21:17;14.45;;;11.75;;
54575;SDS011;40472;53.486;14.542;2022-08-19T02:23:44;20.10;;;12.60;;
54575;SDS011;40472;53.486;14.542;2022-08-19T02:26:11;20.83;;;11.38;;
54575;SDS011;40472;53.486;14.542;2022-08-19T02:28:38;13.90;;;9.50;;
54575;SDS011;40472;53.486;14.542;2022-08-19T02:31:08;16.08;;;11.70;;
54575;SDS011;40472;53.486;14.542;2022-08-19T02:33:37;15.27;;;11.05;;
54575;SDS011;40472;53.486;14.542;2022-08-19T02:36:04;14.43;;;10.52;;
54575;SDS011;40472;53.486;14.542;2022-08-19T02:38:31;16.63;;;9.63;;
54575;SDS011;40472;53.486;14.542;2022-08-19T02:41:02;15.90;;;11.80;;
54575;SDS011;40472;53.486;14.542;2022-08-19T02:43:31;18.70;;;10.35;;
54575;SDS011;40472;53.486;14.542;2022-08-19T02:46:01;14.30;;;10.00;;
54575;SDS011;40472;53.486;14.542;2022-08-19T02:48:36;17.25;;;11.00;;
54575;SDS011;40472;53.486;14.542;2022-08-19T02:51:02;18.92;;;10.27;;
54575;SDS011;40472;53.486;14.542;2022-08-19T02:53:30;16.95;;;9.75;;
54575;SDS011;40472;53.486;14.542;2022-08-19T02:55:56;11.27;;;7.53;;
54575;SDS011;40472;53.486;14.542;2022-08-19T02:58:22;15.60;;;8.55;;
54575;SDS011;40472;53.486;14.542;2022-08-19T03:00:50;11.57;;;7.90;;
54575;SDS011;40472;53.486;14.542;2022-08-19T03:03:18;10.38;;;7.80;;
54575;SDS011;40472;53.486;14.542;2022-08-19T03:05:45;14.88;;;8.52;;
54575;SDS011;40472;53.486;14.542;2022-08-19T03:08:11;12.10;;;8.55;;
54575;SDS011;40472;53.486;14.542;2022-08-19T03:10:44;14.35;;;10.05;;
54575;SDS011;40472;53.486;14.542;2022-08-19T03:13:12;13.63;;;9.23;;
54575;SDS011;40472;53.486;14.542;2022-08-19T03:15:41;14.18;;;9.75;;
54575;SDS011;40472;53.486;14.542;2022-08-19T03:18:08;14.65;;;10.75;;
54575;SDS011;40472;53.486;14.542;2022-08-19T03:20:36;12.85;;;10.55;;
54575;SDS011;40472;53.486;14.542;2022-08-19T03:23:08;11.95;;;7.78;;
54575;SDS011;40472;53.486;14.542;2022-08-19T03:25:38;12.90;;;10.48;;
54575;SDS011;40472;53.486;14.542;2022-08-19T03:28:07;20.95;;;12.05;;
54575;SDS011;40472;53.486;14.542;2022-08-19T03:30:33;16.33;;;12.10;;
54575;SDS011;40472;53.486;14.542;2022-08-19T03:32:58;14.02;;;10.43;;
54575;SDS011;40472;53.486;14.542;2022-08-19T03:35:24;13.90;;;10.82;;
54575;SDS011;40472;53.486;14.542;2022-08-19T03:37:50;15.63;;;10.48;;
54575;SDS011;40472;53.486;14.542;2022-08-19T03:40:16;17.42;;;11.43;;
54575;SDS011;40472;53.486;14.542;2022-08-19T03:42:43;17.63;;;13.40;;
54575;SDS011;40472;53.486;14.542;2022-08-19T03:45:11;17.50;;;12.55;;
54575;SDS011;40472;53.486;14.542;2022-08-19T03:47:36;17.95;;;12.40;;
54575;SDS011;40472;53.486;14.542;2022-08-19T03:50:03;15.52;;;10.65;;
54575;SDS011;40472;53.486;14.542;2022-08-19T03:52:29;12.63;;;9.77;;
54575;SDS011;40472;53.486;14.542;2022-08-19T03:54:55;15.68;;;13.25;;
54575;SDS011;40472;53.486;14.542;2022-08-19T03:57:21;14.93;;;11.20;;
54575;SDS011;40472;53.486;14.542;2022-08-19T03:59:47;15.95;;;11.15;;
54575;SDS011;40472;53.486;14.542;2022-08-19T04:02:13;14.88;;;10.90;;
54575;SDS011;40472;53.486;14.542;2022-08-19T04:04:39;19.08;;;12.18;;
54575;SDS011;40472;53.486;14.542;2022-08-19T04:07:06;17.42;;;11.90;;
54575;SDS011;40472;53.486;14.542;2022-08-19T04:09:33;17.40;;;12.20;;
54575;SDS011;40472;53.486;14.542;2022-08-19T04:12:01;18.80;;;11.90;;
54575;SDS011;40472;53.486;14.542;2022-08-19T04:14:30;16.98;;;13.13;;
54575;SDS011;40472;53.486;14.542;2022-08-19T04:16:56;14.80;;;12.45;;
54575;SDS011;40472;53.486;14.542;2022-08-19T04:19:23;16.50;;;12.93;;
54575;SDS011;40472;53.486;14.542;2022-08-19T04:21:51;19.60;;;12.45;;
54575;SDS011;40472;53.486;14.542;2022-08-19T04:24:18;17.02;;;12.80;;
54575;SDS011;40472;53.486;14.542;2022-08-19T04:26:45;19.85;;;12.20;;
54575;SDS011;40472;53.486;14.542;2022-08-19T04:29:16;19.70;;;11.63;;
54575;SDS011;40472;53.486;14.542;2022-08-19T04:31:44;16.10;;;12.30;;
54575;SDS011;40472;53.486;14.542;2022-08-19T04:34:12;23.45;;;12.73;;
54575;SDS011;40472;53.486;14.542;2022-08-19T04:36:40;20.20;;;13.48;;
54575;SDS011;40472;53.486;14.542;2022-08-19T04:39:08;19.95;;;13.45;;
54575;SDS011;40472;53.486;14.542;2022-08-19T04:41:39;18.23;;;13.45;;
54575;SDS011;40472;53.486;14.542;2022-08-19T04:44:23;19.05;;;12.57;;
54575;SDS011;40472;53.486;14.542;2022-08-19T04:46:50;21.20;;;15.45;;
54575;SDS011;40472;53.486;14.542;2022-08-19T04:49:21;27.75;;;18.90;;
54575;SDS011;40472;53.486;14.542;2022-08-19T04:51:47;22.42;;;16.23;;
54575;SDS011;40472;53.486;14.542;2022-08-19T04:54:15;20.95;;;15.82;;
54575;SDS011;40472;53.486;14.542;2022-08-19T04:56:41;21.77;;;15.85;;
54575;SDS011;40472;53.486;14.542;2022-08-19T04:59:08;19.10;;;13.95;;
54575;SDS011;40472;53.486;14.542;2022-08-19T05:01:36;18.73;;;15.23;;
54575;SDS011;40472;53.486;14.542;2022-08-19T05:04:04;20.33;;;13.80;;
54575;SDS011;40472;53.486;14.542;2022-08-19T05:06:31;18.42;;;14.07;;
54575;SDS011;40472;53.486;14.542;2022-08-19T05:08:58;17.30;;;14.07;;
54575;SDS011;40472;53.486;14.542;2022-08-19T05:11:29;18.08;;;12.85;;
54575;SDS011;40472;53.486;14.542;2022-08-19T05:13:57;17.20;;;13.13;;
54575;SDS011;40472;53.486;14.542;2022-08-19T05:16:23;19.25;;;13.82;;
54575;SDS011;40472;53.486;14.542;2022-08-19T05:18:50;18.63;;;12.63;;
54575;SDS011;40472;53.486;14.542;2022-08-19T05:21:35;18.80;;;11.73;;
54575;SDS011;40472;53.486;14.542;2022-08-19T05:24:20;15.85;;;11.85;;
54575;SDS011;40472;53.486;14.542;2022-08-19T05:26:47;17.13;;;12.18;;
54575;SDS011;40472;53.486;14.542;2022-08-19T05:29:16;14.48;;;11.13;;
54575;SDS011;40472;53.486;14.542;2022-08-19T05:31:44;13.63;;;10.48;;
54575;SDS011;40472;53.486;14.542;2022-08-19T05:34:11;15.13;;;11.40;;
54575;SDS011;40472;53.486;14.542;2022-08-19T05:36:38;17.17;;;12.27;;
54575;SDS011;40472;53.486;14.542;2022-08-19T05:39:11;17.20;;;12.40;;
54575;SDS011;40472;53.486;14.542;2022-08-19T05:41:45;13.77;;;10.63;;
54575;SDS011;40472;53.486;14.542;2022-08-19T05:44:13;14.93;;;11.68;;
54575;SDS011;40472;53.486;14.542;2022-08-19T05:46:40;16.15;;;11.95;;
54575;SDS011;40472;53.486;14.542;2022-08-19T05:49:11;15.30;;;11.90;;
54575;SDS011;40472;53.486;14.542;2022-08-19T05:51:38;15.63;;;10.82;;
54575;SDS011;40472;53.486;14.542;2022-08-19T05:54:04;18.42;;;9.88;;
54575;SDS011;40472;53.486;14.542;2022-08-19T05:56:32;16.98;;;11.95;;
54575;SDS011;40472;53.486;14.542;2022-08-19T05:59:01;19.85;;;11.20;;
54575;SDS011;40472;53.486;14.542;2022-08-19T06:01:28;16.90;;;11.50;;
54575;SDS011;40472;53.486;14.542;2022-08-19T06:03:53;14.57;;;11.25;;
54575;SDS011;40472;53.486;14.542;2022-08-19T06:06:20;13.98;;;10.73;;
54575;SDS011;40472;53.486;14.542;2022-08-19T06:08:45;16.20;;;10.60;;
54575;SDS011;40472;53.486;14.542;2022-08-19T06:11:23;15.50;;;10.63;;
54575;SDS011;40472;53.486;14.542;2022-08-19T06:13:57;17.33;;;12.02;;
54575;SDS011;40472;53.486;14.542;2022-08-19T06:16:27;19.85;;;11.93;;
54575;SDS011;40472;53.486;14.542;2022-08-19T06:18:54;16.10;;;12.07;;
54575;SDS011;40472;53.486;14.542;2022-08-19T06:21:22;14.60;;;11.90;;
54575;SDS011;40472;53.486;14.542;2022-08-19T06:23:52;14.73;;;11.70;;
54575;SDS011;40472;53.486;14.542;2022-08-19T06:26:19;14.35;;;10.45;;
54575;SDS011;40472;53.486;14.542;2022-08-19T06:28:45;15.50;;;11.20;;
54575;SDS011;40472;53.486;14.542;2022-08-19T06:31:20;14.93;;;11.07;;
54575;SDS011;40472;53.486;14.542;2022-08-19T06:33:52;14.15;;;10.57;;
54575;SDS011;40472;53.486;14.542;2022-08-19T06:38:57;14.70;;;11.27;;
54575;SDS011;40472;53.486;14.542;2022-08-19T06:41:24;16.65;;;11.27;;
54575;SDS011;40472;53.486;14.542;2022-08-19T06:43:50;15.77;;;11.98;;
54575;SDS011;40472;53.486;14.542;2022-08-19T06:46:16;15.35;;;12.00;;
54575;SDS011;40472;53.486;14.542;2022-08-19T06:48:43;17.85;;;11.57;;
54575;SDS011;40472;53.486;14.542;2022-08-19T06:51:09;14.52;;;11.20;;
54575;SDS011;40472;53.486;14.542;2022-08-19T06:53:35;15.95;;;10.45;;
54575;SDS011;40472;53.486;14.542;2022-08-19T06:56:01;15.68;;;11.23;;
54575;SDS011;40472;53.486;14.542;2022-08-19T06:58:30;17.67;;;10.85;;
54575;SDS011;40472;53.486;14.542;2022-08-19T07:01:01;16.08;;;9.80;;
54575;SDS011;40472;53.486;14.542;2022-08-19T07:03:29;13.70;;;11.32;;
54575;SDS011;40472;53.486;14.542;2022-08-19T07:05:56;13.30;;;10.40;;
54575;SDS011;40472;53.486;14.542;2022-08-19T07:08:24;12.75;;;10.55;;
54575;SDS011;40472;53.486;14.542;2022-08-19T07:10:51;12.77;;;10.50;;
54575;SDS011;40472;53.486;14.542;2022-08-19T07:13:17;15.20;;;10.75;;
54575;SDS011;40472;53.486;14.542;2022-08-19T07:15:44;15.05;;;9.93;;
54575;SDS011;40472;53.486;14.542;2022-08-19T07:18:11;14.15;;;9.45;;
54575;SDS011;40472;53.486;14.542;2022-08-19T07:20:38;12.55;;;9.23;;
54575;SDS011;40472;53.486;14.542;2022-08-19T07:23:05;15.90;;;9.35;;
54575;SDS011;40472;53.486;14.542;2022-08-19T07:25:30;13.23;;;9.77;;
54575;SDS011;40472;53.486;14.542;2022-08-19T07:27:56;14.18;;;9.25;;
54575;SDS011;40472;53.486;14.542;2022-08-19T07:30:22;10.57;;;9.23;;
54575;SDS011;40472;53.486;14.542;2022-08-19T07:32:49;14.00;;;8.82;;
54575;SDS011;40472;53.486;14.542;2022-08-19T07:35:17;13.55;;;9.95;;
54575;SDS011;40472;53.486;14.542;2022-08-19T07:37:44;17.40;;;11.15;;
54575;SDS011;40472;53.486;14.542;2022-08-19T07:40:10;13.55;;;8.98;;
54575;SDS011;40472;53.486;14.542;2022-08-19T07:42:37;14.32;;;11.18;;
54575;SDS011;40472;53.486;14.542;2022-08-19T07:45:04;17.05;;;10.32;;
54575;SDS011;40472;53.486;14.542;2022-08-19T07:47:31;11.95;;;8.75;;
54575;SDS011;40472;53.486;14.542;2022-08-19T07:49:56;15.63;;;10.50;;
54575;SDS011;40472;53.486;14.542;2022-08-19T07:52:22;14.88;;;10.75;;
54575;SDS011;40472;53.486;14.542;2022-08-19T07:54:48;9.52;;;8.02;;
54575;SDS011;40472;53.486;14.542;2022-08-19T07:57:14;10.85;;;8.77;;
54575;SDS011;40472;53.486;14.542;2022-08-19T07:59:41;15.85;;;10.13;;
54575;SDS011;40472;53.486;14.542;2022-08-19T08:02:07;16.08;;;9.82;;
54575;SDS011;40472;53.486;14.542;2022-08-19T08:04:33;12.23;;;9.82;;
54575;SDS011;40472;53.486;14.542;2022-08-19T08:07:18;12.80;;;10.20;;
54575;SDS011;40472;53.486;14.542;2022-08-19T08:10:05;15.48;;;10.95;;
54575;SDS011;40472;53.486;14.542;2022-08-19T08:12:34;12.88;;;10.77;;
54575;SDS011;40472;53.486;14.542;2022-08-19T08:15:07;14.52;;;9.95;;
54575;SDS011;40472;53.486;14.542;2022-08-19T08:17:36;15.93;;;10.98;;
54575;SDS011;40472;53.486;14.542;2022-08-19T08:20:04;15.43;;;11.90;;
54575;SDS011;40472;53.486;14.542;2022-08-19T08:22:34;12.43;;;9.60;;
54575;SDS011;40472;53.486;14.542;2022-08-19T08:25:20;23.65;;;13.90;;
54575;SDS011;40472;53.486;14.542;2022-08-19T08:27:47;24.70;;;16.27;;
54575;SDS011;40472;53.486;14.542;2022-08-19T08:30:22;30.63;;;18.73;;
54575;SDS011;40472;53.486;14.542;2022-08-19T08:32:50;38.88;;;23.13;;
54575;SDS011;40472;53.486;14.542;2022-08-19T08:35:19;45.50;;;27.48;;
54575;SDS011;40472;53.486;14.542;2022-08-19T08:37:46;49.45;;;27.92;;
54575;SDS011;40472;53.486;14.542;2022-08-19T08:48:37;26.05;;;15.52;;
54575;SDS011;40472;53.486;14.542;2022-08-19T08:51:09;50.88;;;25.08;;
54575;SDS011;40472;53.486;14.542;2022-08-19T08:53:39;49.63;;;25.40;;
54575;SDS011;40472;53.486;14.542;2022-08-19T08:56:07;42.08;;;21.60;;
54575;SDS011;40472;53.486;14.542;2022-08-19T08:58:42;41.28;;;22.65;;
54575;SDS011;40472;53.486;14.542;2022-08-19T09:01:33;45.97;;;25.27;;
54575;SDS011;40472;53.486;14.542;2022-08-19T09:03:59;67.22;;;29.80;;
54575;SDS011;40472;53.486;14.542;2022-08-19T09:06:38;79.03;;;43.88;;
54575;SDS011;40472;53.486;14.542;2022-08-19T09:09:17;68.70;;;36.53;;
54575;SDS011;40472;53.486;14.542;2022-08-19T09:14:49;65.15;;;33.80;;
54575;SDS011;40472;53.486;14.542;2022-08-19T09:17:21;64.18;;;30.05;;
54575;SDS011;40472;53.486;14.542;2022-08-19T09:20:04;42.17;;;23.08;;
54575;SDS011;40472;53.486;14.542;2022-08-19T09:22:42;56.28;;;26.50;;
54575;SDS011;40472;53.486;14.542;2022-08-19T09:25:09;57.80;;;28.42;;
54575;SDS011;40472;53.486;14.542;2022-08-19T09:27:38;49.50;;;26.08;;
54575;SDS011;40472;53.486;14.542;2022-08-19T09:30:06;47.22;;;25.17;;
54575;SDS011;40472;53.486;14.542;2022-08-19T09:32:33;48.38;;;26.75;;
54575;SDS011;40472;53.486;14.542;2022-08-19T09:34:59;51.08;;;24.80;;
54575;SDS011;40472;53.486;14.542;2022-08-19T09:37:25;46.08;;;26.70;;
54575;SDS011;40472;53.486;14.542;2022-08-19T09:39:51;44.10;;;24.67;;
54575;SDS011;40472;53.486;14.542;2022-08-19T09:42:17;35.42;;;23.25;;
54575;SDS011;40472;53.486;14.542;2022-08-19T09:44:45;38.15;;;24.48;;
54575;SDS011;40472;53.486;14.542;2022-08-19T09:47:12;33.88;;;19.45;;
54575;SDS011;40472;53.486;14.542;2022-08-19T09:49:39;36.40;;;23.13;;
54575;SDS011;40472;53.486;14.542;2022-08-19T09:52:06;30.17;;;19.50;;
54575;SDS011;40472;53.486;14.542;2022-08-19T09:54:34;26.05;;;18.63;;
54575;SDS011;40472;53.486;14.542;2022-08-19T09:57:00;27.30;;;18.73;;
54575;SDS011;40472;53.486;14.542;2022-08-19T09:59:26;28.48;;;18.02;;
54575;SDS011;40472;53.486;14.542;2022-08-19T10:01:53;26.20;;;15.88;;
54575;SDS011;40472;53.486;14.542;2022-08-19T10:04:19;23.95;;;17.45;;
54575;SDS011;40472;53.486;14.542;2022-08-19T10:06:46;22.13;;;17.10;;
54575;SDS011;40472;53.486;14.542;2022-08-19T10:09:14;25.17;;;16.02;;
54575;SDS011;40472;53.486;14.542;2022-08-19T10:11:42;18.95;;;14.65;;
54575;SDS011;40472;53.486;14.542;2022-08-19T10:14:13;17.92;;;12.85;;
54575;SDS011;40472;53.486;14.542;2022-08-19T10:16:40;19.52;;;13.38;;
54575;SDS011;40472;53.486;14.542;2022-08-19T10:19:07;22.13;;;13.68;;
54575;SDS011;40472;53.486;14.542;2022-08-19T10:21:34;14.68;;;12.45;;
54575;SDS011;40472;53.486;14.542;2022-08-19T10:24:01;19.02;;;14.95;;
54575;SDS011;40472;53.486;14.542;2022-08-19T10:26:30;22.70;;;13.32;;
54575;SDS011;40472;53.486;14.542;2022-08-19T10:29:01;22.67;;;13.95;;
54575;SDS011;40472;53.486;14.542;2022-08-19T10:31:28;16.95;;;12.90;;
54575;SDS011;40472;53.486;14.542;2022-08-19T10:33:56;17.30;;;13.23;;
54575;SDS011;40472;53.486;14.542;2022-08-19T10:36:30;15.90;;;12.25;;
54575;SDS011;40472;53.486;14.542;2022-08-19T10:39:01;19.63;;;14.37;;
54575;SDS011;40472;53.486;14.542;2022-08-19T10:41:30;16.83;;;10.88;;
54575;SDS011;40472;53.486;14.542;2022-08-19T10:44:00;19.10;;;14.77;;
54575;SDS011;40472;53.486;14.542;2022-08-19T10:46:29;22.33;;;14.93;;
54575;SDS011;40472;53.486;14.542;2022-08-19T10:48:57;21.45;;;14.90;;
54575;SDS011;40472;53.486;14.542;2022-08-19T10:51:27;19.10;;;15.38;;
54575;SDS011;40472;53.486;14.542;2022-08-19T10:54:11;19.60;;;15.18;;
54575;SDS011;40472;53.486;14.542;2022-08-19T10:56:38;23.10;;;17.05;;
54575;SDS011;40472;53.486;14.542;2022-08-19T10:59:17;24.90;;;19.67;;
54575;SDS011;40472;53.486;14.542;2022-08-19T11:01:48;30.83;;;23.48;;
54575;SDS011;40472;53.486;14.542;2022-08-19T11:04:15;47.90;;;30.30;;
54575;SDS011;40472;53.486;14.542;2022-08-19T11:06:43;42.13;;;25.63;;
54575;SDS011;40472;53.486;14.542;2022-08-19T11:09:10;54.05;;;32.75;;
54575;SDS011;40472;53.486;14.542;2022-08-19T11:11:37;51.47;;;32.03;;
54575;SDS011;40472;53.486;14.542;2022-08-19T11:14:09;58.85;;;35.15;;
54575;SDS011;40472;53.486;14.542;2022-08-19T11:16:37;51.35;;;31.08;;
54575;SDS011;40472;53.486;14.542;2022-08-19T11:19:04;52.35;;;32.78;;
54575;SDS011;40472;53.486;14.542;2022-08-19T11:21:33;50.50;;;28.95;;
54575;SDS011;40472;53.486;14.542;2022-08-19T11:24:03;51.47;;;30.88;;
54575;SDS011;40472;53.486;14.542;2022-08-19T11:26:32;52.80;;;27.67;;
54575;SDS011;40472;53.486;14.542;2022-08-19T11:28:59;59.88;;;31.10;;
54575;SDS011;40472;53.486;14.542;2022-08-19T11:31:27;56.38;;;31.05;;
54575;SDS011;40472;53.486;14.542;2022-08-19T11:33:56;40.13;;;27.67;;
54575;SDS011;40472;53.486;14.542;2022-08-19T11:36:24;49.85;;;29.30;;
54575;SDS011;40472;53.486;14.542;2022-08-19T11:38:51;43.78;;;26.83;;
54575;SDS011;40472;53.486;14.542;2022-08-19T11:41:17;41.15;;;24.08;;
54575;SDS011;40472;53.486;14.542;2022-08-19T11:43:45;36.80;;;24.40;;
54575;SDS011;40472;53.486;14.542;2022-08-19T11:46:11;42.90;;;25.83;;
54575;SDS011;40472;53.486;14.542;2022-08-19T11:48:39;34.03;;;22.15;;
54575;SDS011;40472;53.486;14.542;2022-08-19T11:51:09;42.50;;;26.13;;
54575;SDS011;40472;53.486;14.542;2022-08-19T11:53:38;35.72;;;24.40;;
54575;SDS011;40472;53.486;14.542;2022-08-19T11:56:04;32.50;;;22.23;;
54575;SDS011;40472;53.486;14.542;2022-08-19T11:58:31;27.30;;;19.60;;
54575;SDS011;40472;53.486;14.542;2022-08-19T12:00:57;22.33;;;17.35;;
54575;SDS011;40472;53.486;14.542;2022-08-19T12:03:23;23.63;;;18.25;;
54575;SDS011;40472;53.486;14.542;2022-08-19T12:05:49;28.20;;;17.77;;
54575;SDS011;40472;53.486;14.542;2022-08-19T12:08:15;25.02;;;17.92;;
54575;SDS011;40472;53.486;14.542;2022-08-19T12:10:42;24.20;;;19.00;;
54575;SDS011;40472;53.486;14.542;2022-08-19T12:13:10;31.67;;;18.77;;
54575;SDS011;40472;53.486;14.542;2022-08-19T12:15:39;25.40;;;18.50;;
54575;SDS011;40472;53.486;14.542;2022-08-19T12:18:06;25.48;;;17.88;;
54575;SDS011;40472;53.486;14.542;2022-08-19T12:20:37;29.67;;;18.52;;
54575;SDS011;40472;53.486;14.542;2022-08-19T12:23:05;27.15;;;18.08;;
54575;SDS011;40472;53.486;14.542;2022-08-19T12:25:31;28.55;;;19.80;;
54575;SDS011;40472;53.486;14.542;2022-08-19T12:27:58;33.13;;;21.50;;
54575;SDS011;40472;53.486;14.542;2022-08-19T12:30:24;32.10;;;19.77;;
54575;SDS011;40472;53.486;14.542;2022-08-19T12:32:50;25.10;;;17.88;;
54575;SDS011;40472;53.486;14.542;2022-08-19T12:35:16;21.83;;;16.20;;
54575;SDS011;40472;53.486;14.542;2022-08-19T12:37:44;18.85;;;13.60;;
54575;SDS011;40472;53.486;14.542;2022-08-19T12:40:11;18.38;;;13.98;;
54575;SDS011;40472;53.486;14.542;2022-08-19T12:42:38;16.45;;;12.50;;
54575;SDS011;40472;53.486;14.542;2022-08-19T12:45:12;19.17;;;14.98;;
54575;SDS011;40472;53.486;14.542;2022-08-19T12:47:38;16.27;;;12.52;;
54575;SDS011;40472;53.486;14.542;2022-08-19T12:50:05;15.82;;;10.90;;
54575;SDS011;40472;53.486;14.542;2022-08-19T12:52:34;15.82;;;11.55;;
54575;SDS011;40472;53.486;14.542;2022-08-19T12:55:07;14.50;;;10.88;;
54575;SDS011;40472;53.486;14.542;2022-08-19T12:57:33;15.63;;;11.00;;
54575;SDS011;40472;53.486;14.542;2022-08-19T13:00:11;14.85;;;10.48;;
54575;SDS011;40472;53.486;14.542;2022-08-19T13:02:39;13.55;;;10.00;;
54575;SDS011;40472;53.486;14.542;2022-08-19T13:05:07;14.85;;;10.52;;
54575;SDS011;40472;53.486;14.542;2022-08-19T13:07:36;14.15;;;9.75;;
54575;SDS011;40472;53.486;14.542;2022-08-19T13:10:04;15.57;;;10.10;;
54575;SDS011;40472;53.486;14.542;2022-08-19T13:12:33;14.05;;;10.20;;
54575;SDS011;40472;53.486;14.542;2022-08-19T13:14:59;14.60;;;9.57;;
54575;SDS011;40472;53.486;14.542;2022-08-19T13:17:24;14.00;;;10.07;;
54575;SDS011;40472;53.486;14.542;2022-08-19T13:19:50;14.70;;;10.30;;
54575;SDS011;40472;53.486;14.542;2022-08-19T13:22:16;13.38;;;10.05;;
54575;SDS011;40472;53.486;14.542;2022-08-19T13:24:43;11.77;;;8.35;;
54575;SDS011;40472;53.486;14.542;2022-08-19T13:27:08;14.65;;;9.02;;
54575;SDS011;40472;53.486;14.542;2022-08-19T13:29:34;15.90;;;9.30;;
54575;SDS011;40472;53.486;14.542;2022-08-19T13:32:19;13.05;;;10.18;;
54575;SDS011;40472;53.486;14.542;2022-08-19T13:35:03;12.18;;;9.13;;
54575;SDS011;40472;53.486;14.542;2022-08-19T13:37:30;9.98;;;8.93;;
54575;SDS011;40472;53.486;14.542;2022-08-19T13:40:09;13.23;;;9.98;;
54575;SDS011;40472;53.486;14.542;2022-08-19T13:42:42;17.10;;;9.65;;
54575;SDS011;40472;53.486;14.542;2022-08-19T13:45:11;14.75;;;9.52;;
54575;SDS011;40472;53.486;14.542;2022-08-19T13:47:37;11.63;;;9.20;;
54575;SDS011;40472;53.486;14.542;2022-08-19T13:50:14;12.77;;;9.30;;
54575;SDS011;40472;53.486;14.542;2022-08-19T13:52:45;15.88;;;8.93;;
54575;SDS011;40472;53.486;14.542;2022-08-19T13:55:13;12.05;;;10.30;;
54575;SDS011;40472;53.486;14.542;2022-08-19T13:57:40;11.93;;;9.48;;
54575;SDS011;40472;53.486;14.542;2022-08-19T14:02:53;12.45;;;9.88;;
54575;SDS011;40472;53.486;14.542;2022-08-19T14:05:21;12.23;;;9.55;;
54575;SDS011;40472;53.486;14.542;2022-08-19T14:07:48;13.18;;;10.48;;
54575;SDS011;40472;53.486;14.542;2022-08-19T14:10:15;11.80;;;8.88;;
54575;SDS011;40472;53.486;14.542;2022-08-19T14:12:41;14.35;;;10.10;;
54575;SDS011;40472;53.486;14.542;2022-08-19T14:15:08;13.32;;;9.55;;
54575;SDS011;40472;53.486;14.542;2022-08-19T14:17:37;11.73;;;10.43;;
54575;SDS011;40472;53.486;14.542;2022-08-19T14:20:04;11.68;;;8.75;;
54575;SDS011;40472;53.486;14.542;2022-08-19T14:22:34;11.90;;;9.35;;
54575;SDS011;40472;53.486;14.542;2022-08-19T14:25:01;11.90;;;9.20;;
54575;SDS011;40472;53.486;14.542;2022-08-19T14:27:30;13.32;;;9.63;;
54575;SDS011;40472;53.486;14.542;2022-08-19T14:29:58;11.88;;;8.98;;
54575;SDS011;40472;53.486;14.542;2022-08-19T14:32:24;15.18;;;9.43;;
54575;SDS011;40472;53.486;14.542;2022-08-19T14:34:52;11.50;;;8.88;;